createdAt,value
2019-02-26T00:01:16.406Z,84.31
2019-02-26T00:03:44.686Z,84.36
2019-02-26T00:06:16.176Z,84.83
2019-02-26T00:08:49.234Z,83.85
2019-02-26T00:11:17.020Z,83.85
2019-02-26T00:13:48.058Z,83.75
2019-02-26T00:16:18.436Z,83.75
2019-02-26T00:18:48.431Z,83.90
2019-02-26T00:21:17.635Z,83.86
2019-02-26T00:23:48.869Z,83.59
2019-02-26T00:26:20.662Z,83.59
2019-02-26T00:28:50.304Z,83.91
2019-02-26T00:31:21.519Z,84.64
2019-02-26T00:33:50.231Z,84.64
2019-02-26T00:36:19.301Z,85.61
2019-02-26T00:38:48.423Z,85.71
2019-02-26T00:41:20.530Z,85.56
2019-02-26T00:43:51.230Z,85.81
2019-02-26T00:46:19.585Z,85.39
2019-02-26T00:48:49.190Z,85.74
2019-02-26T00:51:20.561Z,85.74
2019-02-26T00:53:52.793Z,85.78
2019-02-26T00:56:19.953Z,85.97
2019-02-26T00:58:50.380Z,85.85
2019-02-26T01:01:21.497Z,85.77
2019-02-26T01:03:51.868Z,86.14
2019-02-26T01:06:22.628Z,86.14
2019-02-26T01:08:52.418Z,86.36
2019-02-26T01:11:23.768Z,86.54
2019-02-26T01:13:52.848Z,86.48
2019-02-26T01:16:22.554Z,86.48
2019-02-26T01:18:53.211Z,86.90
2019-02-26T01:21:26.260Z,86.84
2019-02-26T01:23:53.641Z,86.84
2019-02-26T01:26:22.855Z,86.87
2019-02-26T01:28:53.667Z,87.28
2019-02-26T01:31:24.693Z,86.94
2019-02-26T01:33:55.324Z,86.94
2019-02-26T01:36:25.702Z,87.02
2019-02-26T01:38:54.859Z,87.42
2019-02-26T01:41:25.031Z,88.13
2019-02-26T01:43:56.628Z,88.13
2019-02-26T01:46:25.841Z,88.03
2019-02-26T01:48:57.427Z,88.03
2019-02-26T01:51:28.487Z,87.84
2019-02-26T01:53:57.085Z,87.84
2019-02-26T01:56:28.050Z,88.04
2019-02-26T01:59:02.095Z,87.73
2019-02-26T02:01:28.010Z,87.66
2019-02-26T02:03:57.061Z,87.82
2019-02-26T02:06:26.231Z,87.82
2019-02-26T02:08:55.813Z,88.42
2019-02-26T02:11:28.198Z,88.42
2019-02-26T02:13:55.885Z,89.44
2019-02-26T02:16:28.540Z,89.08
2019-02-26T02:18:58.204Z,89.89
2019-02-26T02:21:30.421Z,89.89
2019-02-26T02:23:58.335Z,89.93
2019-02-26T02:26:27.570Z,89.34
2019-02-26T02:28:56.925Z,90.07
2019-02-26T02:31:30.312Z,90.21
2019-02-26T02:33:57.071Z,90.21
2019-02-26T02:36:26.740Z,89.73
2019-02-26T02:38:55.939Z,89.49
2019-02-26T02:41:25.014Z,89.12
2019-02-26T02:43:54.407Z,89.17
2019-02-26T02:46:23.493Z,89.38
2019-02-26T02:48:52.584Z,89.17
2019-02-26T02:51:21.651Z,90.12
2019-02-26T02:53:53.522Z,90.12
2019-02-26T02:56:22.080Z,89.80
2019-02-26T02:58:51.763Z,89.87
2019-02-26T03:01:24.430Z,89.87
2019-02-26T03:03:53.809Z,90.15
2019-02-26T03:06:24.282Z,89.86
2019-02-26T03:08:53.858Z,89.86
2019-02-26T03:11:22.943Z,89.96
2019-02-26T03:13:53.856Z,90.69
2019-02-26T03:16:25.087Z,91.23
2019-02-26T03:18:53.868Z,91.23
2019-02-26T03:21:24.748Z,90.60
2019-02-26T03:23:53.880Z,91.72
2019-02-26T03:26:25.323Z,91.72
2019-02-26T03:28:54.191Z,91.90
2019-02-26T03:31:28.517Z,91.34
2019-02-26T03:34:00.117Z,91.34
2019-02-26T03:36:26.184Z,91.43
2019-02-26T03:38:57.284Z,90.77
2019-02-26T03:41:28.849Z,91.29
2019-02-26T03:44:00.551Z,91.59
2019-02-26T03:46:28.998Z,91.33
2019-02-26T03:49:02.471Z,91.33
2019-02-26T03:51:29.410Z,91.04
2019-02-26T03:53:59.057Z,92.11
2019-02-26T03:56:28.445Z,92.11
2019-02-26T03:59:00.233Z,91.73
2019-02-26T04:01:28.489Z,91.36
2019-02-26T04:03:59.717Z,92.72
2019-02-26T04:06:30.563Z,92.49
2019-02-26T04:08:59.804Z,92.49
2019-02-26T04:11:29.157Z,92.59
2019-02-26T04:13:58.320Z,92.83
2019-02-26T04:16:29.633Z,92.53
2019-02-26T04:18:58.550Z,92.38
2019-02-26T04:22:04.908Z,92.75
2019-02-26T04:24:37.406Z,92.84
2019-02-26T04:27:33.497Z,93.18
2019-02-26T04:30:36.526Z,92.76
2019-02-26T04:33:33.400Z,92.76
2019-02-26T04:36:49.585Z,92.34
2019-02-26T04:40:11.823Z,92.94
2019-02-26T04:43:48.923Z,92.98
2019-02-26T04:46:39.539Z,93.75
2019-02-26T04:49:08.719Z,93.75
2019-02-26T04:51:39.875Z,93.68
2019-02-26T04:54:09.242Z,93.73
2019-02-26T04:56:40.219Z,93.40
2019-02-26T04:59:12.354Z,93.42
2019-02-26T05:01:41.314Z,93.42
2019-02-26T05:04:10.362Z,93.25
2019-02-26T05:06:39.448Z,92.77
2019-02-26T05:09:10.511Z,92.88
2019-02-26T05:11:40.696Z,92.90
2019-02-26T05:14:11.730Z,93.66
2019-02-26T05:16:40.930Z,94.20
2019-02-26T05:19:10.643Z,94.42
2019-02-26T05:21:40.890Z,94.39
2019-02-26T05:24:12.415Z,94.79
2019-02-26T05:26:40.762Z,94.96
2019-02-26T05:29:13.565Z,95.41
2019-02-26T05:31:43.264Z,95.34
2019-02-26T05:34:15.130Z,94.13
2019-02-26T05:36:46.089Z,93.54
2019-02-26T05:39:18.112Z,93.17
2019-02-26T05:41:45.480Z,92.85
2019-02-26T05:44:14.574Z,92.80
2019-02-26T05:46:43.626Z,93.14
2019-02-26T05:49:15.723Z,93.84
2019-02-26T05:51:43.688Z,94.31
2019-02-26T05:54:15.287Z,94.83
2019-02-26T05:56:46.126Z,94.89
2019-02-26T05:59:15.492Z,94.68
2019-02-26T06:01:46.565Z,94.44
2019-02-26T06:04:20.623Z,93.98
2019-02-26T06:06:52.737Z,93.47
2019-02-26T06:09:23.513Z,92.96
2019-02-26T06:11:51.253Z,93.56
2019-02-26T06:14:20.543Z,92.70
2019-02-26T06:16:51.309Z,92.49
2019-02-26T06:19:37.782Z,92.44
2019-02-26T06:22:08.931Z,92.18
2019-02-26T06:24:38.677Z,92.89
2019-02-26T06:27:10.813Z,92.75
2019-02-26T06:29:38.994Z,92.90
2019-02-26T06:32:15.620Z,93.10
2019-02-26T06:34:44.733Z,93.16
2019-02-26T06:37:16.650Z,92.96
2019-02-26T06:39:45.747Z,92.62
2019-02-26T06:42:15.057Z,92.62
2019-02-26T06:44:46.424Z,93.01
2019-02-26T06:47:15.258Z,92.60
2019-02-26T06:49:45.774Z,91.90
2019-02-26T06:52:17.913Z,90.92
2019-02-26T06:54:50.170Z,90.92
2019-02-26T06:57:18.198Z,90.72
2019-02-26T06:59:47.365Z,90.37
2019-02-26T07:02:16.801Z,89.15
2019-02-26T07:04:45.859Z,88.77
2019-02-26T07:07:15.175Z,87.26
2019-02-26T07:09:44.256Z,87.26
2019-02-26T07:12:14.598Z,86.06
2019-02-26T07:14:46.422Z,86.06
2019-02-26T07:17:15.286Z,85.29
2019-02-26T07:19:44.334Z,84.52
2019-02-26T07:22:14.249Z,84.07
2019-02-26T07:24:46.270Z,84.94
2019-02-26T07:27:15.543Z,84.40
2019-02-26T07:29:45.758Z,84.12
2019-02-26T07:32:17.900Z,83.83
2019-02-26T07:34:47.965Z,83.71
2019-02-26T07:37:17.323Z,83.71
2019-02-26T07:39:47.193Z,83.32
2019-02-26T07:42:18.882Z,82.09
2019-02-26T07:44:48.019Z,81.60
2019-02-26T07:47:17.094Z,81.24
2019-02-26T07:49:46.436Z,81.24
2019-02-26T07:52:15.560Z,81.63
2019-02-26T07:54:47.093Z,81.37
2019-02-26T07:57:17.965Z,78.59
2019-02-26T07:59:47.683Z,77.88
2019-02-26T08:02:17.866Z,77.88
2019-02-26T08:04:46.972Z,76.88
2019-02-26T08:07:16.019Z,76.33
2019-02-26T08:09:45.128Z,76.36
2019-02-26T08:12:14.214Z,74.88
2019-02-26T08:14:45.887Z,74.09
2019-02-26T08:17:14.633Z,72.16
2019-02-26T08:19:46.709Z,71.63
2019-02-26T08:22:15.143Z,70.30
2019-02-26T08:24:46.098Z,69.88
2019-02-26T08:27:15.141Z,68.98
2019-02-26T08:29:44.250Z,67.65
2019-02-26T08:32:15.894Z,66.50
2019-02-26T08:34:44.219Z,65.56
2019-02-26T08:37:13.462Z,65.10
2019-02-26T08:39:42.640Z,64.97
2019-02-26T08:42:12.314Z,63.81
2019-02-26T08:44:41.393Z,63.57
2019-02-26T08:47:12.011Z,63.05
2019-02-26T08:49:43.426Z,63.97
2019-02-26T08:52:12.093Z,62.91
2019-02-26T08:54:41.136Z,61.40
2019-02-26T08:57:11.919Z,61.29
2019-02-26T08:59:42.286Z,60.45
2019-02-26T09:02:12.419Z,59.07
2019-02-26T09:04:42.596Z,58.62
2019-02-26T09:07:14.005Z,58.91
2019-02-26T09:09:45.138Z,58.81
2019-02-26T09:12:15.293Z,58.93
2019-02-26T09:14:47.628Z,58.43
2019-02-26T09:17:18.788Z,57.80
2019-02-26T09:19:47.567Z,57.01
2019-02-26T09:22:19.329Z,57.06
2019-02-26T09:24:49.398Z,57.46
2019-02-26T09:27:18.796Z,56.03
2019-02-26T09:29:51.300Z,55.91
2019-02-26T09:32:18.747Z,55.29
2019-02-26T09:34:47.960Z,55.70
2019-02-26T09:37:17.096Z,55.19
2019-02-26T09:39:46.349Z,54.14
2019-02-26T09:42:15.462Z,53.79
2019-02-26T09:44:44.741Z,53.14
2019-02-26T09:47:14.097Z,52.74
2019-02-26T09:49:43.253Z,52.11
2019-02-26T09:52:12.481Z,51.84
2019-02-26T09:54:42.914Z,50.71
2019-02-26T09:57:15.518Z,50.44
2019-02-26T09:59:43.149Z,50.65
2019-02-26T10:02:12.377Z,49.91
2019-02-26T10:04:42.470Z,49.11
2019-02-26T10:07:14.371Z,48.27
2019-02-26T10:09:46.483Z,47.79
2019-02-26T10:12:15.725Z,48.22
2019-02-26T10:14:45.527Z,48.07
2019-02-26T10:17:16.485Z,48.31
2019-02-26T10:19:45.647Z,47.69
2019-02-26T10:22:14.759Z,47.59
2019-02-26T10:24:44.038Z,48.02
2019-02-26T10:27:14.619Z,46.97
2019-02-26T10:29:45.083Z,46.93
2019-02-26T10:32:14.884Z,46.96
2019-02-26T10:34:44.199Z,45.50
2019-02-26T10:37:13.292Z,44.54
2019-02-26T10:39:44.357Z,44.11
2019-02-26T10:42:13.459Z,43.83
2019-02-26T10:44:42.811Z,44.23
2019-02-26T10:47:12.124Z,43.76
2019-02-26T10:49:41.319Z,42.97
2019-02-26T10:52:13.423Z,42.61
2019-02-26T10:54:43.697Z,43.21
2019-02-26T10:57:14.545Z,43.49
2019-02-26T10:59:45.000Z,42.70
2019-02-26T11:02:15.193Z,42.46
2019-02-26T11:04:46.919Z,41.69
2019-02-26T11:07:16.307Z,41.62
2019-02-26T11:09:49.510Z,41.44
2019-02-26T11:12:16.819Z,41.59
2019-02-26T11:14:45.878Z,41.48
2019-02-26T11:17:15.831Z,41.07
2019-02-26T11:19:46.320Z,41.58
2019-02-26T11:22:18.094Z,41.40
2019-02-26T11:24:48.521Z,41.65
2019-02-26T11:27:17.814Z,41.00
2019-02-26T11:29:47.370Z,39.69
2019-02-26T11:32:16.682Z,40.57
2019-02-26T11:34:45.796Z,40.29
2019-02-26T11:37:15.310Z,40.21
2019-02-26T11:39:44.407Z,39.80
2019-02-26T11:42:13.480Z,38.82
2019-02-26T11:44:42.732Z,38.72
2019-02-26T11:47:13.551Z,37.68
2019-02-26T11:49:44.302Z,36.88
2019-02-26T11:52:13.523Z,36.81
2019-02-26T11:54:44.676Z,37.82
2019-02-26T11:57:15.355Z,37.59
2019-02-26T11:59:44.752Z,37.73
2019-02-26T12:02:13.897Z,37.23
2019-02-26T12:04:43.125Z,36.90
2019-02-26T12:07:12.313Z,37.45
2019-02-26T12:09:43.276Z,37.21
2019-02-26T12:12:12.715Z,37.22
2019-02-26T12:14:43.893Z,37.36
2019-02-26T12:17:12.609Z,37.63
2019-02-26T12:19:41.841Z,39.05
2019-02-26T12:22:10.915Z,38.83
2019-02-26T12:24:40.037Z,39.19
2019-02-26T12:27:09.791Z,38.90
2019-02-26T12:29:43.666Z,39.46
2019-02-26T12:32:12.271Z,39.22
2019-02-26T12:34:44.599Z,39.44
2019-02-26T12:37:12.624Z,39.67
2019-02-26T12:39:43.736Z,39.33
2019-02-26T12:42:13.964Z,39.46
2019-02-26T12:44:45.445Z,39.27
2019-02-26T12:47:17.897Z,38.67
2019-02-26T12:49:45.734Z,39.38
2019-02-26T12:52:16.078Z,38.85
2019-02-26T12:54:45.866Z,38.77
2019-02-26T12:57:16.986Z,38.75
2019-02-26T12:59:46.413Z,38.65
2019-02-26T13:02:17.049Z,38.20
2019-02-26T13:04:48.052Z,38.12
2019-02-26T13:07:17.396Z,37.98
2019-02-26T13:09:51.301Z,38.16
2019-02-26T13:12:23.263Z,37.93
2019-02-26T13:14:50.510Z,38.04
2019-02-26T13:17:21.955Z,37.94
2019-02-26T13:19:58.137Z,37.99
2019-02-26T13:22:22.318Z,38.20
2019-02-26T13:24:51.355Z,38.25
2019-02-26T13:27:20.478Z,38.13
2019-02-26T13:29:56.843Z,37.35
2019-02-26T13:32:24.989Z,37.92
2019-02-26T13:34:55.659Z,37.66
2019-02-26T13:37:26.721Z,37.65
2019-02-26T13:39:54.523Z,37.80
2019-02-26T13:42:23.708Z,37.74
2019-02-26T13:44:52.910Z,37.51
2019-02-26T13:47:22.208Z,37.31
2019-02-26T13:49:52.082Z,37.08
2019-02-26T13:52:21.180Z,37.34
2019-02-26T13:54:50.680Z,37.15
2019-02-26T13:57:20.013Z,37.47
2019-02-26T13:59:49.341Z,37.08
2019-02-26T14:02:18.427Z,37.44
2019-02-26T14:04:47.521Z,36.92
2019-02-26T14:07:16.801Z,36.90
2019-02-26T14:09:46.340Z,36.59
2019-02-26T14:12:15.721Z,36.89
2019-02-26T14:14:44.859Z,36.67
2019-02-26T14:17:15.130Z,37.11
2019-02-26T14:19:44.249Z,36.73
2019-02-26T14:22:13.457Z,36.58
2019-02-26T14:24:42.717Z,36.46
2019-02-26T14:27:11.948Z,36.65
2019-02-26T14:29:41.144Z,36.86
2019-02-26T14:32:10.289Z,36.85
2019-02-26T14:34:39.423Z,37.36
2019-02-26T14:37:08.540Z,36.91
2019-02-26T14:39:37.759Z,36.86
2019-02-26T14:42:06.953Z,36.70
2019-02-26T14:44:36.134Z,36.71
2019-02-26T14:47:05.540Z,36.66
2019-02-26T14:49:34.723Z,36.82
2019-02-26T14:52:03.842Z,36.75
2019-02-26T14:54:32.990Z,36.74
2019-02-26T14:57:02.351Z,37.00
2019-02-26T14:59:32.987Z,36.87
2019-02-26T15:02:02.229Z,36.79
2019-02-26T15:04:34.683Z,36.53
2019-02-26T15:07:04.060Z,37.04
2019-02-26T15:09:33.404Z,36.69
2019-02-26T15:12:02.506Z,37.30
2019-02-26T15:14:31.595Z,36.63
2019-02-26T15:17:01.032Z,36.99
2019-02-26T15:19:30.303Z,36.52
2019-02-26T15:21:59.591Z,36.77
2019-02-26T15:24:28.807Z,36.60
2019-02-26T15:26:58.140Z,36.60
2019-02-26T15:29:27.217Z,37.21
2019-02-26T15:31:56.692Z,36.89
2019-02-26T15:34:25.898Z,36.23
2019-02-26T15:36:55.089Z,36.27
2019-02-26T15:39:24.478Z,36.59
2019-02-26T15:41:53.771Z,36.43
2019-02-26T15:44:22.899Z,36.13
2019-02-26T15:46:52.060Z,36.28
2019-02-26T15:49:21.177Z,36.54
2019-02-26T15:51:50.988Z,35.96
2019-02-26T15:54:21.087Z,35.98
2019-02-26T15:56:50.888Z,36.51
2019-02-26T15:59:20.179Z,36.99
2019-02-26T16:01:49.780Z,36.89
2019-02-26T16:04:19.023Z,36.16
2019-02-26T16:06:48.240Z,36.20
2019-02-26T16:09:19.531Z,35.74
2019-02-26T16:11:48.835Z,36.09
2019-02-26T16:14:17.911Z,36.17
2019-02-26T16:16:47.139Z,36.33
2019-02-26T16:19:16.474Z,36.66
2019-02-26T16:21:45.675Z,36.85
2019-02-26T16:24:14.887Z,37.16
2019-02-26T16:26:43.994Z,36.91
2019-02-26T16:29:13.561Z,36.75
2019-02-26T16:31:42.664Z,36.64
2019-02-26T16:34:12.422Z,36.76
2019-02-26T16:36:41.841Z,36.83
2019-02-26T16:39:10.984Z,36.66
2019-02-26T16:41:40.269Z,36.42
2019-02-26T16:44:09.655Z,36.53
2019-02-26T16:46:39.613Z,36.59
2019-02-26T16:49:09.938Z,36.86
2019-02-26T16:51:39.179Z,36.97
2019-02-26T16:54:08.688Z,37.67
2019-02-26T16:56:37.971Z,38.73
2019-02-26T16:59:07.842Z,39.97
2019-02-26T17:01:37.930Z,40.95
2019-02-26T17:04:07.710Z,42.53
2019-02-26T17:06:37.465Z,43.72
2019-02-26T17:09:07.872Z,44.64
2019-02-26T17:11:37.100Z,45.73
2019-02-26T17:14:06.407Z,46.46
2019-02-26T17:16:35.573Z,47.45
2019-02-26T17:19:04.743Z,48.40
2019-02-26T17:21:33.958Z,50.02
2019-02-26T17:24:03.138Z,51.14
2019-02-26T17:26:33.370Z,51.45
2019-02-26T17:29:03.217Z,52.05
2019-02-26T17:31:32.615Z,52.66
2019-02-26T17:34:01.839Z,53.50
2019-02-26T17:36:32.639Z,53.97
2019-02-26T17:39:02.064Z,54.32
2019-02-26T17:41:31.379Z,54.13
2019-02-26T17:44:02.161Z,54.86
2019-02-26T17:46:31.958Z,55.68
2019-02-26T17:49:02.868Z,56.17
2019-02-26T17:51:32.460Z,56.55
2019-02-26T17:54:01.947Z,57.07
2019-02-26T17:56:32.779Z,57.32
2019-02-26T17:59:01.896Z,57.74
2019-02-26T18:01:31.191Z,58.10
2019-02-26T18:04:00.286Z,58.39
2019-02-26T18:06:29.552Z,58.66
2019-02-26T18:08:58.740Z,59.16
2019-02-26T18:11:27.822Z,59.91
2019-02-26T18:13:57.832Z,60.47
2019-02-26T18:16:28.259Z,60.85
2019-02-26T18:18:59.514Z,60.88
2019-02-26T18:21:28.776Z,61.08
2019-02-26T18:23:59.152Z,61.26
2019-02-26T18:26:28.286Z,61.69
2019-02-26T18:28:58.938Z,61.92
2019-02-26T18:31:31.047Z,62.04
2019-02-26T18:33:59.204Z,62.06
2019-02-26T18:36:28.309Z,62.46
2019-02-26T18:38:58.172Z,62.62
2019-02-26T18:41:27.650Z,62.99
2019-02-26T18:44:04.291Z,63.30
2019-02-26T18:46:34.244Z,63.39
2019-02-26T18:49:05.106Z,63.70
2019-02-26T18:51:37.742Z,63.86
2019-02-26T18:54:08.985Z,64.42
2019-02-26T18:56:39.474Z,64.68
2019-02-26T18:59:09.093Z,64.92
2019-02-26T19:01:40.498Z,65.15
2019-02-26T19:04:11.002Z,65.42
2019-02-26T19:06:40.376Z,65.92
2019-02-26T19:09:11.728Z,66.18
2019-02-26T19:11:42.977Z,66.62
2019-02-26T19:14:12.489Z,67.05
2019-02-26T19:16:42.170Z,67.11
2019-02-26T19:19:11.503Z,67.67
2019-02-26T19:21:41.088Z,67.67
2019-02-26T19:24:10.402Z,68.28
2019-02-26T19:26:40.253Z,68.85
2019-02-26T19:29:10.500Z,69.31
2019-02-26T19:31:42.372Z,69.83
2019-02-26T19:34:13.488Z,70.17
2019-02-26T19:36:45.681Z,70.31
2019-02-26T19:39:16.189Z,70.36
2019-02-26T19:41:47.006Z,70.59
2019-02-26T19:44:16.193Z,70.66
2019-02-26T19:46:49.417Z,71.03
2019-02-26T19:49:16.887Z,71.35
2019-02-26T19:51:46.054Z,71.68
2019-02-26T19:54:17.001Z,72.42
2019-02-26T19:56:46.471Z,72.46
2019-02-26T19:59:15.545Z,72.20
2019-02-26T20:01:45.821Z,71.47
2019-02-26T20:04:15.783Z,72.03
2019-02-26T20:06:48.828Z,72.72
2019-02-26T20:09:20.668Z,73.14
2019-02-26T20:11:50.959Z,72.89
2019-02-26T20:14:21.663Z,72.74
2019-02-26T20:16:51.623Z,73.12
2019-02-26T20:19:20.974Z,73.26
2019-02-26T20:21:51.643Z,72.99
2019-02-26T20:24:22.087Z,73.30
2019-02-26T20:26:51.813Z,72.96
2019-02-26T20:29:21.842Z,72.92
2019-02-26T20:31:55.610Z,73.01
2019-02-26T20:34:23.951Z,72.92
2019-02-26T20:36:53.621Z,73.14
2019-02-26T20:39:22.996Z,73.57
2019-02-26T20:41:55.550Z,74.08
2019-02-26T20:44:23.888Z,74.24
2019-02-26T20:46:53.105Z,74.06
2019-02-26T20:49:22.593Z,74.10
2019-02-26T20:51:51.810Z,74.02
2019-02-26T20:54:21.333Z,74.13
2019-02-26T20:56:50.982Z,74.21
2019-02-26T20:59:20.197Z,74.02
2019-02-26T21:01:49.626Z,74.27
2019-02-26T21:04:18.838Z,74.61
2019-02-26T21:06:50.402Z,74.93
2019-02-26T21:09:19.211Z,75.48
2019-02-26T21:11:48.372Z,76.32
2019-02-26T21:14:17.766Z,76.43
2019-02-26T21:16:47.256Z,76.53
2019-02-26T21:19:18.707Z,76.41
2019-02-26T21:21:49.135Z,75.95
2019-02-26T21:24:19.132Z,75.73
2019-02-26T21:26:52.630Z,75.70
2019-02-26T21:29:19.354Z,75.86
2019-02-26T21:31:49.757Z,75.81
2019-02-26T21:34:19.674Z,76.05
2019-02-26T21:36:48.941Z,75.87
2019-02-26T21:39:18.348Z,75.90
2019-02-26T21:41:47.559Z,75.85
2019-02-26T21:44:16.656Z,75.86
2019-02-26T21:46:45.905Z,76.00
2019-02-26T21:49:15.019Z,75.86
2019-02-26T21:51:44.301Z,75.71
2019-02-26T21:54:13.398Z,75.77
2019-02-26T21:56:42.657Z,75.72
2019-02-26T21:59:11.986Z,76.28
2019-02-26T22:01:43.679Z,76.50
2019-02-26T22:04:12.411Z,76.71
2019-02-26T22:06:44.451Z,76.98
2019-02-26T22:09:12.605Z,77.34
2019-02-26T22:11:43.371Z,77.67
2019-02-26T22:14:14.278Z,77.45
2019-02-26T22:16:43.469Z,77.83
2019-02-26T22:19:12.591Z,78.09
2019-02-26T22:21:51.791Z,78.25
2019-02-26T22:24:20.808Z,78.57
2019-02-26T22:26:50.239Z,78.89
2019-02-26T22:29:19.516Z,78.79
2019-02-26T22:31:48.740Z,78.99
2019-02-26T22:34:19.047Z,79.26
2019-02-26T22:36:48.839Z,79.77
2019-02-26T22:39:22.273Z,79.86
2019-02-26T22:41:49.302Z,79.87
2019-02-26T22:44:18.736Z,80.02
2019-02-26T22:46:49.463Z,80.74
2019-02-26T22:49:20.680Z,80.83
2019-02-26T22:51:49.997Z,80.54
2019-02-26T22:54:19.106Z,80.22
2019-02-26T22:56:48.609Z,80.05
2019-02-26T22:59:17.732Z,80.07
2019-02-26T23:01:47.888Z,80.40
2019-02-26T23:04:19.781Z,80.99
2019-02-26T23:06:48.571Z,81.18
2019-02-26T23:09:23.997Z,81.35
2019-02-26T23:11:53.478Z,81.68
2019-02-26T23:14:22.665Z,81.12
2019-02-26T23:16:52.558Z,80.81
2019-02-26T23:19:23.113Z,81.10
2019-02-26T23:21:52.450Z,80.62
2019-02-26T23:24:21.808Z,80.67
2019-02-26T23:26:51.234Z,80.78
2019-02-26T23:29:20.462Z,81.35
2019-02-26T23:31:50.129Z,81.08
2019-02-26T23:34:21.906Z,80.63
2019-02-26T23:36:50.574Z,80.99
2019-02-26T23:39:19.824Z,81.54
2019-02-26T23:41:49.129Z,81.28
2019-02-26T23:44:18.660Z,81.58
2019-02-26T23:46:47.841Z,81.72
2019-02-26T23:49:16.943Z,81.78
2019-02-26T23:51:45.996Z,82.02
2019-02-26T23:54:15.185Z,82.51
2019-02-26T23:56:44.329Z,82.90
2019-02-26T23:59:13.518Z,82.65
